Time;durP1;ratioP1;P1;durP2;ratioP2;P2;SDS_P1;SDS_P2;PMS_P1;PMS_P2;Temp;Humidity;BMP_temperature;BMP_pressure;BME280_temperature;BME280_humidity;BME280_pressure;Samples;Min_cycle;Max_cycle;Signal;HPM_P1;HPM_P2
2022/12/12 00:00:37;;;;;;;23.38;10.77;;;;;;;;;;5014927;28;20046;-77
2022/12/12 00:03:04;;;;;;;21.70;9.93;;;;;;;;;;5018218;28;20100;-78
2022/12/12 00:05:30;;;;;;;24.90;11.35;;;;;;;;;;4999471;28;20065;-78
2022/12/12 00:07:56;;;;;;;28.05;11.43;;;;;;;;;;5016593;28;20049;-76
2022/12/12 00:10:22;;;;;;;28.80;10.68;;;;;;;;;;5015810;28;20119;-77
2022/12/12 00:12:48;;;;;;;26.10;12.00;;;;;;;;;;5016506;28;20038;-78
2022/12/12 00:15:15;;;;;;;22.48;9.82;;;;;;;;;;5016769;28;20052;-78
2022/12/12 00:17:41;;;;;;;24.63;11.02;;;;;;;;;;4998860;28;21154;-77
2022/12/12 00:20:08;;;;;;;23.08;10.63;;;;;;;;;;5015914;28;20042;-78
2022/12/12 00:22:34;;;;;;;21.65;10.88;;;;;;;;;;5011442;28;20664;-77
2022/12/12 00:25:00;;;;;;;24.45;10.15;;;;;;;;;;4994971;28;21282;-78
2022/12/12 00:27:26;;;;;;;24.75;12.15;;;;;;;;;;5013664;28;20042;-78
2022/12/12 00:29:53;;;;;;;24.10;10.68;;;;;;;;;;5010264;28;20521;-78
2022/12/12 00:32:19;;;;;;;22.38;10.38;;;;;;;;;;4995059;28;20041;-78
2022/12/12 00:34:46;;;;;;;26.23;12.13;;;;;;;;;;4993906;28;20038;-77
2022/12/12 00:37:12;;;;;;;23.92;10.55;;;;;;;;;;5012788;28;20050;-78
2022/12/12 00:39:38;;;;;;;24.23;10.85;;;;;;;;;;5013874;28;20053;-78
2022/12/12 00:42:04;;;;;;;29.33;11.30;;;;;;;;;;5016237;28;20354;-78
2022/12/12 00:44:30;;;;;;;24.45;11.02;;;;;;;;;;4997204;28;20046;-78
2022/12/12 00:46:56;;;;;;;23.92;11.10;;;;;;;;;;5017240;28;20041;-78
2022/12/12 00:49:22;;;;;;;24.55;10.25;;;;;;;;;;4998219;28;20038;-78
2022/12/12 00:51:48;;;;;;;30.88;11.68;;;;;;;;;;5015837;28;20116;-77
2022/12/12 00:54:14;;;;;;;24.52;13.45;;;;;;;;;;5015701;28;20129;-78
2022/12/12 00:56:41;;;;;;;20.25;11.10;;;;;;;;;;5016849;28;20050;-78
2022/12/12 00:59:07;;;;;;;25.98;11.80;;;;;;;;;;4998695;28;20562;-78
2022/12/12 01:01:34;;;;;;;26.42;12.38;;;;;;;;;;5017485;28;20052;-78
2022/12/12 01:04:01;;;;;;;21.02;11.82;;;;;;;;;;4996997;28;20041;-78
2022/12/12 01:06:27;;;;;;;25.20;10.65;;;;;;;;;;5014831;28;20050;-77
2022/12/12 01:08:54;;;;;;;27.65;10.77;;;;;;;;;;5016401;28;21303;-78
2022/12/12 01:11:20;;;;;;;26.25;12.40;;;;;;;;;;5013887;28;20096;-78
2022/12/12 01:13:48;;;;;;;27.63;10.35;;;;;;;;;;5013102;28;20577;-77
2022/12/12 01:16:14;;;;;;;26.42;11.00;;;;;;;;;;4996821;28;20981;-78
2022/12/12 01:18:41;;;;;;;25.05;13.05;;;;;;;;;;4996481;28;20805;-78
2022/12/12 01:21:08;;;;;;;28.05;11.65;;;;;;;;;;4993641;28;20130;-77
2022/12/12 01:23:34;;;;;;;26.60;10.85;;;;;;;;;;4997271;28;20560;-77
2022/12/12 01:26:01;;;;;;;26.27;10.05;;;;;;;;;;4995833;28;20189;-78
2022/12/12 01:28:27;;;;;;;27.17;13.65;;;;;;;;;;5012772;28;20583;-78
2022/12/12 01:30:53;;;;;;;24.55;10.80;;;;;;;;;;5013522;28;21639;-78
2022/12/12 01:33:19;;;;;;;26.65;11.98;;;;;;;;;;4996966;28;20046;-77
2022/12/12 01:35:45;;;;;;;27.58;11.00;;;;;;;;;;5011009;28;20046;-77
2022/12/12 01:38:11;;;;;;;28.05;11.85;;;;;;;;;;4997078;28;20076;-78
2022/12/12 01:40:37;;;;;;;27.08;11.52;;;;;;;;;;5013195;28;20124;-78
2022/12/12 01:43:05;;;;;;;26.20;11.13;;;;;;;;;;5014006;28;20056;-77
2022/12/12 01:45:50;;;;;;;23.38;12.10;;;;;;;;;;5008671;28;20073;-78
2022/12/12 01:48:16;;;;;;;23.73;12.00;;;;;;;;;;4996365;28;20046;-77
2022/12/12 01:50:43;;;;;;;25.13;10.18;;;;;;;;;;5012118;28;20042;-78
2022/12/12 01:53:10;;;;;;;25.02;11.50;;;;;;;;;;5014811;28;22208;-78
2022/12/12 01:55:36;;;;;;;24.80;11.38;;;;;;;;;;5013655;28;20959;-78
2022/12/12 01:58:02;;;;;;;25.45;11.38;;;;;;;;;;5014895;28;20138;-78
2022/12/12 02:00:28;;;;;;;24.60;13.02;;;;;;;;;;5014188;28;20046;-77
2022/12/12 02:02:55;;;;;;;26.55;10.93;;;;;;;;;;4996433;28;20112;-78
2022/12/12 02:05:28;;;;;;;28.33;12.05;;;;;;;;;;5013008;28;20116;-78
2022/12/12 02:07:54;;;;;;;25.27;10.50;;;;;;;;;;5013858;28;20053;-78
2022/12/12 02:10:21;;;;;;;27.10;13.07;;;;;;;;;;5015508;28;20107;-77
2022/12/12 02:12:47;;;;;;;26.55;12.23;;;;;;;;;;4993832;28;20553;-78
2022/12/12 02:15:13;;;;;;;31.60;12.27;;;;;;;;;;5013609;28;20049;-78
2022/12/12 02:17:58;;;;;;;27.75;13.65;;;;;;;;;;4993687;28;20054;-78
2022/12/12 02:20:43;;;;;;;27.73;11.77;;;;;;;;;;4996244;28;20038;-78
2022/12/12 02:23:15;;;;;;;20.73;11.82;;;;;;;;;;5014159;28;20544;-78
2022/12/12 02:25:41;;;;;;;29.05;10.68;;;;;;;;;;5013483;28;20046;-78
2022/12/12 02:28:36;;;;;;;23.80;11.93;;;;;;;;;;4996136;28;20053;-78
2022/12/12 02:31:14;;;;;;;26.48;11.77;;;;;;;;;;4977138;28;20054;-79
2022/12/12 02:33:43;;;;;;;24.25;10.52;;;;;;;;;;5012402;28;20046;-78
2022/12/12 02:36:10;;;;;;;27.85;11.98;;;;;;;;;;5012692;28;20661;-78
2022/12/12 02:38:46;;;;;;;26.85;12.20;;;;;;;;;;4995974;28;20054;-78
2022/12/12 02:41:15;;;;;;;27.27;11.63;;;;;;;;;;5014781;28;20049;-78
2022/12/12 02:43:53;;;;;;;26.90;12.27;;;;;;;;;;4995112;28;20592;-78
2022/12/12 02:46:22;;;;;;;27.23;13.23;;;;;;;;;;5012480;28;20129;-77
2022/12/12 02:48:54;;;;;;;28.30;11.65;;;;;;;;;;5008139;28;20046;-77
2022/12/12 02:51:20;;;;;;;32.60;12.27;;;;;;;;;;5012233;28;20092;-78
2022/12/12 02:53:46;;;;;;;24.15;11.80;;;;;;;;;;5010983;28;20548;-78
2022/12/12 02:56:31;;;;;;;26.27;12.55;;;;;;;;;;4994331;28;20036;-77
2022/12/12 02:58:57;;;;;;;33.35;12.80;;;;;;;;;;5014632;28;20042;-78
2022/12/12 03:01:27;;;;;;;29.83;11.50;;;;;;;;;;4995490;28;20073;-78
2022/12/12 03:10:01;;;;;;;31.38;12.68;;;;;;;;;;5013496;28;20524;-77
2022/12/12 03:12:33;;;;;;;26.80;12.45;;;;;;;;;;5012428;28;20050;-77
2022/12/12 03:15:23;;;;;;;29.13;11.98;;;;;;;;;;4994331;28;20030;-78
2022/12/12 03:17:57;;;;;;;26.40;11.07;;;;;;;;;;5012297;28;20041;-78
2022/12/12 03:20:36;;;;;;;23.25;10.48;;;;;;;;;;5012001;28;20046;-78
2022/12/12 03:23:04;;;;;;;25.60;11.52;;;;;;;;;;5011762;28;20044;-78
2022/12/12 03:25:33;;;;;;;27.15;12.18;;;;;;;;;;5012183;28;20034;-78
2022/12/12 03:28:08;;;;;;;25.33;12.23;;;;;;;;;;5013797;28;20045;-78
2022/12/12 03:30:38;;;;;;;26.48;12.77;;;;;;;;;;4992384;28;20050;-78
2022/12/12 03:33:20;;;;;;;30.17;11.00;;;;;;;;;;5010307;28;20510;-78
2022/12/12 03:35:48;;;;;;;21.73;11.20;;;;;;;;;;5010242;28;20517;-78
2022/12/12 03:38:20;;;;;;;28.60;12.00;;;;;;;;;;5010166;28;20044;-78
2022/12/12 03:40:49;;;;;;;27.15;11.70;;;;;;;;;;5011567;28;20113;-78
2022/12/12 03:43:18;;;;;;;26.48;11.85;;;;;;;;;;5010884;28;20038;-78
2022/12/12 03:45:58;;;;;;;35.63;13.60;;;;;;;;;;5011622;28;20577;-77
2022/12/12 03:48:28;;;;;;;33.40;12.40;;;;;;;;;;5014345;28;20173;-78
2022/12/12 03:51:02;;;;;;;23.00;11.73;;;;;;;;;;4995291;28;20046;-77
2022/12/12 03:53:36;;;;;;;27.17;10.10;;;;;;;;;;5013137;28;20042;-78
2022/12/12 03:56:12;;;;;;;31.25;12.18;;;;;;;;;;4992716;28;20041;-77
2022/12/12 03:58:47;;;;;;;26.77;13.13;;;;;;;;;;4994283;28;20041;-78
2022/12/12 04:01:15;;;;;;;33.63;11.52;;;;;;;;;;5012437;28;20042;-77
2022/12/12 04:03:51;;;;;;;28.23;12.70;;;;;;;;;;5011066;28;20049;-77
2022/12/12 04:06:25;;;;;;;25.92;12.30;;;;;;;;;;5014071;28;20527;-78
2022/12/12 04:14:31;;;;;;;22.65;10.95;;;;;;;;;;5012240;28;20057;-78
2022/12/12 04:16:59;;;;;;;;;;;;;;;;;;5011437;28;20042;-78
2022/12/12 04:25:12;;;;;;;27.45;11.63;;;;;;;;;;5012165;28;20112;-78
2022/12/12 04:27:43;;;;;;;30.08;13.00;;;;;;;;;;4995476;28;20092;-78
2022/12/12 04:30:12;;;;;;;27.20;10.55;;;;;;;;;;5013467;28;20075;-78
2022/12/12 04:32:59;;;;;;;26.73;12.52;;;;;;;;;;5012073;28;21281;-78
2022/12/12 04:35:31;;;;;;;28.13;12.45;;;;;;;;;;4991798;28;20042;-78
2022/12/12 04:37:58;;;;;;;28.20;11.98;;;;;;;;;;5011369;28;20065;-78
2022/12/12 04:40:30;;;;;;;30.17;12.10;;;;;;;;;;5011487;28;20050;-78
2022/12/12 04:42:58;;;;;;;31.70;12.87;;;;;;;;;;5008905;28;20659;-78
2022/12/12 04:45:27;;;;;;;28.00;11.43;;;;;;;;;;5010714;28;20297;-78
2022/12/12 04:47:55;;;;;;;28.60;11.88;;;;;;;;;;5012082;28;20090;-78
2022/12/12 04:50:23;;;;;;;30.85;12.68;;;;;;;;;;4993015;28;20040;-78
2022/12/12 04:52:51;;;;;;;29.92;13.80;;;;;;;;;;5008873;28;20038;-78
2022/12/12 04:55:21;;;;;;;25.52;11.98;;;;;;;;;;5009218;28;20037;-80
2022/12/12 04:57:49;;;;;;;33.05;13.07;;;;;;;;;;5011185;28;20042;-79
2022/12/12 05:00:15;;;;;;;35.08;15.18;;;;;;;;;;5010833;28;20038;-78
2022/12/12 05:02:54;;;;;;;30.38;12.57;;;;;;;;;;5013646;28;20046;-78
2022/12/12 05:05:32;;;;;;;30.10;12.23;;;;;;;;;;5012148;28;20152;-78
2022/12/12 05:08:02;;;;;;;26.85;11.93;;;;;;;;;;4991831;28;20120;-78
2022/12/12 05:10:28;;;;;;;31.85;12.65;;;;;;;;;;5011063;28;20529;-78
2022/12/12 05:12:58;;;;;;;30.42;11.88;;;;;;;;;;4993821;28;20057;-78
2022/12/12 05:15:25;;;;;;;31.67;12.68;;;;;;;;;;4994473;28;20503;-78
2022/12/12 05:17:55;;;;;;;27.42;12.68;;;;;;;;;;5009574;28;20070;-78
2022/12/12 05:20:21;;;;;;;30.92;13.48;;;;;;;;;;5013008;28;20558;-77
2022/12/12 05:22:48;;;;;;;27.13;12.88;;;;;;;;;;5010454;28;20532;-78
2022/12/12 05:25:14;;;;;;;31.73;12.52;;;;;;;;;;5011213;28;20108;-78
2022/12/12 05:27:40;;;;;;;36.85;14.95;;;;;;;;;;5013012;28;20456;-78
2022/12/12 05:30:07;;;;;;;30.67;13.20;;;;;;;;;;4997725;28;20506;-78
2022/12/12 05:32:33;;;;;;;23.48;12.80;;;;;;;;;;5013246;28;20069;-78
2022/12/12 05:34:59;;;;;;;40.72;14.90;;;;;;;;;;5016433;28;20050;-77
2022/12/12 05:37:25;;;;;;;26.60;11.15;;;;;;;;;;5015266;28;20606;-78
2022/12/12 05:39:51;;;;;;;22.10;10.75;;;;;;;;;;5012710;28;20518;-77
2022/12/12 05:42:17;;;;;;;36.55;14.23;;;;;;;;;;5013889;28;20049;-78
2022/12/12 05:44:44;;;;;;;28.50;13.65;;;;;;;;;;5016331;28;20100;-78
2022/12/12 05:47:10;;;;;;;31.48;14.85;;;;;;;;;;5012582;28;20137;-78
2022/12/12 05:49:36;;;;;;;26.17;11.43;;;;;;;;;;5012125;28;20046;-78
2022/12/12 05:52:02;;;;;;;21.13;11.20;;;;;;;;;;5014797;28;20042;-78
2022/12/12 05:54:28;;;;;;;36.03;14.25;;;;;;;;;;5012015;28;20054;-78
2022/12/12 05:56:54;;;;;;;32.47;13.88;;;;;;;;;;5013528;28;20078;-78
2022/12/12 05:59:20;;;;;;;35.65;14.88;;;;;;;;;;5008578;28;20523;-78
2022/12/12 06:01:46;;;;;;;26.45;11.55;;;;;;;;;;5014036;28;20049;-78
2022/12/12 06:04:12;;;;;;;28.95;12.93;;;;;;;;;;5014223;28;20057;-78
2022/12/12 06:06:39;;;;;;;31.10;14.07;;;;;;;;;;4970423;28;20134;-78
2022/12/12 06:09:05;;;;;;;27.17;12.20;;;;;;;;;;4971029;28;20058;-78
2022/12/12 06:11:31;;;;;;;28.50;12.60;;;;;;;;;;4971845;28;20057;-78
2022/12/12 06:13:57;;;;;;;25.50;12.35;;;;;;;;;;4972519;28;20050;-78
2022/12/12 06:16:23;;;;;;;33.33;15.25;;;;;;;;;;4972681;28;20054;-78
2022/12/12 06:18:50;;;;;;;27.52;11.82;;;;;;;;;;4990067;28;20046;-76
2022/12/12 06:21:16;;;;;;;29.40;13.40;;;;;;;;;;4990687;28;20039;-79
2022/12/12 06:23:42;;;;;;;27.48;13.27;;;;;;;;;;4971462;28;20054;-77
2022/12/12 06:26:10;;;;;;;29.05;11.60;;;;;;;;;;4973870;28;20439;-78
2022/12/12 06:28:37;;;;;;;33.08;14.80;;;;;;;;;;4977035;28;20034;-78
2022/12/12 06:31:04;;;;;;;24.20;12.57;;;;;;;;;;4977012;28;20195;-78
2022/12/12 06:33:34;;;;;;;27.77;12.23;;;;;;;;;;4977444;28;20055;-78
2022/12/12 06:36:06;;;;;;;28.40;12.02;;;;;;;;;;4977585;28;20035;-79
2022/12/12 06:38:33;;;;;;;26.33;13.23;;;;;;;;;;4992204;28;20039;-78
2022/12/12 06:40:59;;;;;;;34.15;14.75;;;;;;;;;;4974904;28;20138;-77
2022/12/12 06:43:25;;;;;;;26.60;12.23;;;;;;;;;;4992277;28;20058;-78
2022/12/12 06:45:51;;;;;;;31.92;14.32;;;;;;;;;;4975538;28;20054;-77
2022/12/12 06:48:17;;;;;;;23.88;12.18;;;;;;;;;;4993606;28;20043;-77
2022/12/12 06:50:44;;;;;;;25.25;11.43;;;;;;;;;;4978139;28;20043;-77
2022/12/12 06:53:10;;;;;;;32.45;13.77;;;;;;;;;;4976658;28;20134;-77
2022/12/12 06:55:42;;;;;;;36.13;14.18;;;;;;;;;;4976847;28;20050;-77
2022/12/12 06:58:09;;;;;;;31.63;13.27;;;;;;;;;;4971261;28;20057;-77
2022/12/12 07:00:35;;;;;;;25.25;11.50;;;;;;;;;;4972083;28;20100;-76
2022/12/12 07:03:01;;;;;;;26.33;11.85;;;;;;;;;;4992132;28;20042;-77
2022/12/12 07:05:27;;;;;;;27.70;11.13;;;;;;;;;;4974131;28;20485;-78
2022/12/12 07:07:53;;;;;;;30.92;11.60;;;;;;;;;;4977209;28;20089;-76
2022/12/12 07:10:20;;;;;;;36.33;12.40;;;;;;;;;;4974592;28;20042;-77
2022/12/12 07:12:50;;;;;;;26.73;10.60;;;;;;;;;;4975478;28;20976;-76
2022/12/12 07:15:16;;;;;;;28.27;12.90;;;;;;;;;;4988856;28;20422;-77
2022/12/12 07:17:42;;;;;;;29.40;12.07;;;;;;;;;;4971150;28;20516;-77
2022/12/12 07:20:08;;;;;;;27.00;11.82;;;;;;;;;;4991034;28;20434;-77
2022/12/12 07:22:35;;;;;;;25.45;13.55;;;;;;;;;;4992865;28;20043;-76
2022/12/12 07:25:02;;;;;;;26.40;13.95;;;;;;;;;;4977398;28;20050;-78
2022/12/12 07:27:30;;;;;;;29.23;13.60;;;;;;;;;;4977266;28;20039;-78
2022/12/12 07:29:56;;;;;;;33.30;14.00;;;;;;;;;;4978469;28;20549;-77
2022/12/12 07:32:22;;;;;;;27.52;12.80;;;;;;;;;;4993376;28;20054;-77
2022/12/12 07:34:51;;;;;;;28.50;11.52;;;;;;;;;;4978784;28;20045;-77
2022/12/12 07:37:17;;;;;;;28.15;12.30;;;;;;;;;;4979244;28;20042;-78
2022/12/12 07:39:43;;;;;;;28.98;12.25;;;;;;;;;;4992902;28;20043;-76
2022/12/12 07:42:16;;;;;;;28.65;13.35;;;;;;;;;;5010209;28;20039;-77
2022/12/12 07:44:43;;;;;;;29.17;13.32;;;;;;;;;;5001935;28;20486;-77
2022/12/12 07:47:10;;;;;;;28.13;12.48;;;;;;;;;;5003447;28;20039;-77
2022/12/12 07:49:36;;;;;;;26.35;12.45;;;;;;;;;;5001529;28;20108;-82
2022/12/12 07:52:04;;;;;;;25.95;12.18;;;;;;;;;;4993035;28;20057;-81
2022/12/12 07:54:30;;;;;;;29.52;12.55;;;;;;;;;;4979350;28;20047;-77
2022/12/12 07:56:59;;;;;;;24.88;10.77;;;;;;;;;;4980475;28;20627;-77
2022/12/12 07:59:25;;;;;;;26.58;12.13;;;;;;;;;;4981344;28;20078;-77
2022/12/12 08:01:51;;;;;;;37.42;12.80;;;;;;;;;;4980746;28;20634;-77
2022/12/12 08:04:20;;;;;;;25.80;12.10;;;;;;;;;;4980768;28;20067;-77
2022/12/12 08:06:47;;;;;;;21.95;10.57;;;;;;;;;;4981724;28;20053;-78
2022/12/12 08:09:13;;;;;;;25.20;11.77;;;;;;;;;;4979914;28;20134;-77
2022/12/12 08:11:41;;;;;;;27.77;11.43;;;;;;;;;;4979407;28;20043;-77
2022/12/12 08:14:07;;;;;;;23.48;11.65;;;;;;;;;;4979983;28;20043;-77
2022/12/12 08:16:33;;;;;;;25.50;11.25;;;;;;;;;;4994544;28;20034;-77
2022/12/12 08:18:59;;;;;;;23.45;11.63;;;;;;;;;;4993615;28;20050;-77
2022/12/12 08:21:26;;;;;;;28.92;11.55;;;;;;;;;;4977642;28;20046;-78
2022/12/12 08:23:56;;;;;;;29.10;12.13;;;;;;;;;;4977940;28;20046;-77
2022/12/12 08:26:22;;;;;;;28.90;11.63;;;;;;;;;;4977537;28;20050;-77
2022/12/12 08:28:49;;;;;;;30.95;11.93;;;;;;;;;;4979360;28;20043;-77
2022/12/12 08:31:16;;;;;;;26.58;13.20;;;;;;;;;;4979295;28;20047;-77
2022/12/12 08:33:42;;;;;;;29.73;12.98;;;;;;;;;;4980185;28;20043;-77
2022/12/12 08:36:19;;;;;;;32.13;13.52;;;;;;;;;;4978827;28;20516;-77
2022/12/12 08:38:45;;;;;;;22.05;11.23;;;;;;;;;;4977505;28;20046;-76
2022/12/12 08:41:13;;;;;;;28.35;12.27;;;;;;;;;;4976772;28;20098;-77
2022/12/12 08:43:40;;;;;;;31.63;13.10;;;;;;;;;;4978029;28;20043;-77
2022/12/12 08:46:07;;;;;;;29.45;12.98;;;;;;;;;;4976207;28;20138;-77
2022/12/12 08:48:33;;;;;;;32.53;14.55;;;;;;;;;;4978772;28;20567;-77
2022/12/12 08:50:59;;;;;;;36.28;14.38;;;;;;;;;;4976437;28;20394;-77
2022/12/12 08:53:26;;;;;;;27.60;11.93;;;;;;;;;;4976785;28;20039;-76
2022/12/12 08:55:52;;;;;;;27.33;12.00;;;;;;;;;;4978370;28;20526;-77
2022/12/12 08:58:18;;;;;;;29.48;10.85;;;;;;;;;;4976554;28;20055;-77
2022/12/12 09:00:44;;;;;;;21.88;10.65;;;;;;;;;;4979419;28;20152;-77
2022/12/12 09:03:10;;;;;;;29.90;11.80;;;;;;;;;;4980977;28;20046;-76
2022/12/12 09:05:41;;;;;;;26.23;11.18;;;;;;;;;;4999984;28;20137;-77
2022/12/12 09:08:07;;;;;;;29.10;11.82;;;;;;;;;;5020103;28;20057;-77
2022/12/12 09:10:34;;;;;;;25.60;12.25;;;;;;;;;;5016843;28;20065;-76
2022/12/12 09:13:00;;;;;;;32.47;13.70;;;;;;;;;;5018093;28;20045;-77
2022/12/12 09:15:26;;;;;;;25.52;11.80;;;;;;;;;;5018776;28;20046;-77
2022/12/12 09:17:52;;;;;;;27.13;10.77;;;;;;;;;;5018013;28;20037;-77
2022/12/12 09:20:18;;;;;;;26.17;12.90;;;;;;;;;;5018929;28;20125;-77
2022/12/12 09:22:44;;;;;;;26.38;12.05;;;;;;;;;;5019679;28;20354;-77
2022/12/12 09:25:10;;;;;;;26.30;12.15;;;;;;;;;;5020240;28;20511;-77
2022/12/12 09:27:39;;;;;;;29.45;13.07;;;;;;;;;;5001188;28;20490;-75
2022/12/12 09:30:05;;;;;;;26.33;12.65;;;;;;;;;;5017842;28;20045;-77
2022/12/12 09:32:31;;;;;;;33.75;12.10;;;;;;;;;;5017779;28;20888;-77
2022/12/12 09:34:57;;;;;;;25.48;13.63;;;;;;;;;;5019560;28;20050;-77
2022/12/12 09:37:23;;;;;;;40.95;17.40;;;;;;;;;;5018997;28;20709;-77
2022/12/12 09:39:52;;;;;;;31.95;13.25;;;;;;;;;;5019430;28;20081;-77
2022/12/12 09:42:18;;;;;;;26.52;11.57;;;;;;;;;;5019645;28;20046;-77
2022/12/12 09:44:45;;;;;;;29.83;12.43;;;;;;;;;;5018536;28;20068;-77
2022/12/12 09:47:41;;;;;;;31.20;12.88;;;;;;;;;;5018207;28;20045;-77
2022/12/12 09:50:27;;;;;;;27.40;12.05;;;;;;;;;;5005125;28;20049;-77
2022/12/12 09:52:59;;;;;;;28.45;11.93;;;;;;;;;;5006990;28;20175;-77
2022/12/12 09:55:55;;;;;;;29.08;12.48;;;;;;;;;;5017683;28;20038;-77
2022/12/12 09:58:33;;;;;;;25.92;11.18;;;;;;;;;;4971007;28;20055;-77
2022/12/12 10:01:03;;;;;;;34.70;11.73;;;;;;;;;;5019330;28;20065;-77
2022/12/12 10:03:31;;;;;;;23.48;11.50;;;;;;;;;;5008190;28;20046;-76
2022/12/12 10:06:03;;;;;;;20.95;10.55;;;;;;;;;;5017025;28;20046;-77
2022/12/12 10:08:46;;;;;;;29.63;13.73;;;;;;;;;;5019172;28;20157;-77
2022/12/12 10:14:00;;;;;;;26.38;12.52;;;;;;;;;;5019497;28;20137;-77
2022/12/12 10:16:26;;;;;;;21.95;10.23;;;;;;;;;;5017866;28;20133;-77
2022/12/12 10:18:53;;;;;;;23.60;11.75;;;;;;;;;;5018404;28;20500;-77
2022/12/12 10:21:22;;;;;;;26.85;12.77;;;;;;;;;;5016655;28;20053;-77
2022/12/12 10:23:50;;;;;;;24.55;11.73;;;;;;;;;;5019073;28;20034;-77
2022/12/12 10:26:16;;;;;;;31.50;12.13;;;;;;;;;;5000275;28;20070;-77
2022/12/12 10:28:43;;;;;;;26.55;12.88;;;;;;;;;;5017212;28;20613;-77
2022/12/12 10:31:16;;;;;;;27.13;11.43;;;;;;;;;;5017782;28;20116;-76
2022/12/12 10:33:52;;;;;;;24.13;10.68;;;;;;;;;;5018555;28;20065;-77
2022/12/12 10:36:21;;;;;;;22.90;12.00;;;;;;;;;;5000923;28;20045;-77
2022/12/12 10:38:59;;;;;;;23.88;11.13;;;;;;;;;;5018751;28;20046;-77
2022/12/12 10:41:28;;;;;;;24.15;11.88;;;;;;;;;;4999792;28;20088;-77
2022/12/12 10:43:57;;;;;;;28.58;11.77;;;;;;;;;;5018613;28;20049;-77
2022/12/12 10:46:23;;;;;;;27.27;11.57;;;;;;;;;;5018336;28;20544;-77
2022/12/12 10:48:49;;;;;;;22.15;10.60;;;;;;;;;;4999065;28;20114;-77
2022/12/12 10:51:16;;;;;;;24.55;11.68;;;;;;;;;;5018286;28;20122;-77
2022/12/12 10:53:43;;;;;;;25.05;11.38;;;;;;;;;;5018704;28;20104;-77
2022/12/12 10:56:11;;;;;;;23.90;12.40;;;;;;;;;;5017289;28;20046;-77
2022/12/12 10:58:50;;;;;;;21.55;10.85;;;;;;;;;;5016482;28;20052;-76
2022/12/12 11:01:21;;;;;;;24.88;11.57;;;;;;;;;;5015333;28;20045;-77
2022/12/12 11:03:51;;;;;;;24.23;9.45;;;;;;;;;;4999191;28;20049;-77
2022/12/12 11:06:29;;;;;;;21.02;11.48;;;;;;;;;;5017055;28;20050;-77
2022/12/12 11:08:59;;;;;;;23.55;11.60;;;;;;;;;;5017089;28;20816;-77
2022/12/12 11:11:27;;;;;;;20.67;10.55;;;;;;;;;;5016868;28;20041;-77
2022/12/12 11:14:00;;;;;;;22.55;11.68;;;;;;;;;;5017046;28;20045;-76
2022/12/12 11:16:28;;;;;;;22.60;12.32;;;;;;;;;;4999579;28;20038;-76
2022/12/12 11:19:00;;;;;;;23.02;11.20;;;;;;;;;;5015174;28;20053;-77
2022/12/12 11:21:28;;;;;;;25.67;12.23;;;;;;;;;;5018242;28;20129;-76
2022/12/12 11:23:56;;;;;;;23.55;10.60;;;;;;;;;;5016484;28;20042;-77
2022/12/12 11:26:23;;;;;;;20.48;10.23;;;;;;;;;;5017241;28;20046;-77
2022/12/12 11:29:02;;;;;;;25.13;11.02;;;;;;;;;;5016206;28;20549;-77
2022/12/12 11:31:30;;;;;;;25.33;11.73;;;;;;;;;;5016536;28;20038;-77
2022/12/12 11:33:59;;;;;;;19.70;10.80;;;;;;;;;;5014000;28;20169;-76
2022/12/12 11:36:31;;;;;;;23.65;10.63;;;;;;;;;;5016536;28;20046;-77
2022/12/12 11:38:58;;;;;;;23.88;11.05;;;;;;;;;;5016184;28;20041;-77
2022/12/12 11:41:24;;;;;;;19.90;10.20;;;;;;;;;;5016673;28;20046;-77
2022/12/12 11:43:50;;;;;;;27.80;12.18;;;;;;;;;;5017669;28;20046;-77
2022/12/12 11:46:18;;;;;;;22.73;10.15;;;;;;;;;;5015193;28;20038;-77
2022/12/12 11:48:47;;;;;;;22.23;9.95;;;;;;;;;;5017095;28;20466;-77
2022/12/12 11:51:14;;;;;;;19.73;10.45;;;;;;;;;;5015332;28;20044;-77
2022/12/12 11:53:44;;;;;;;27.08;11.70;;;;;;;;;;5016087;28;20049;-77
2022/12/12 11:56:13;;;;;;;21.60;10.40;;;;;;;;;;5017308;28;20042;-77
2022/12/12 11:58:45;;;;;;;21.95;11.30;;;;;;;;;;5014688;28;20085;-77
2022/12/12 12:01:17;;;;;;;23.60;10.15;;;;;;;;;;5015508;28;20042;-77
2022/12/12 12:03:43;;;;;;;18.70;9.27;;;;;;;;;;5015186;28;20042;-77
2022/12/12 12:06:24;;;;;;;21.77;9.52;;;;;;;;;;5017824;28;20050;-77
2022/12/12 12:09:11;;;;;;;20.48;9.85;;;;;;;;;;5017835;28;20050;-77
2022/12/12 12:11:49;;;;;;;24.50;10.95;;;;;;;;;;5016579;28;20029;-76
2022/12/12 12:14:31;;;;;;;21.40;10.07;;;;;;;;;;5015871;28;20879;-76
2022/12/12 12:17:16;;;;;;;17.40;7.22;;;;;;;;;;5014378;28;20514;-77
2022/12/12 12:19:48;;;;;;;27.92;11.23;;;;;;;;;;5017676;28;20073;-77
2022/12/12 12:22:43;;;;;;;28.92;11.02;;;;;;;;;;5015274;28;20610;-77
2022/12/12 12:25:17;;;;;;;26.05;10.52;;;;;;;;;;5003076;28;20141;-76
2022/12/12 12:28:02;;;;;;;24.85;11.00;;;;;;;;;;5017955;28;20074;-76
2022/12/12 12:30:34;;;;;;;22.90;11.60;;;;;;;;;;5016331;28;20555;-77
2022/12/12 12:33:05;;;;;;;26.95;13.68;;;;;;;;;;5016651;28;20050;-77
2022/12/12 12:35:33;;;;;;;24.98;11.82;;;;;;;;;;5001539;28;20665;-76
2022/12/12 12:38:18;;;;;;;29.77;11.50;;;;;;;;;;5019142;28;20049;-76
2022/12/12 12:41:02;;;;;;;21.75;10.00;;;;;;;;;;5021085;28;20370;-76
2022/12/12 12:43:31;;;;;;;28.25;12.18;;;;;;;;;;5003408;28;20573;-76
2022/12/12 12:46:17;;;;;;;23.88;10.15;;;;;;;;;;5001672;28;20042;-77
2022/12/12 12:48:50;;;;;;;25.55;9.85;;;;;;;;;;4988926;28;20057;-76
2022/12/12 12:51:23;;;;;;;30.80;12.30;;;;;;;;;;5019689;28;20710;-77
2022/12/12 12:53:57;;;;;;;18.90;9.48;;;;;;;;;;5020648;28;20046;-77
2022/12/12 12:56:28;;;;;;;22.52;10.73;;;;;;;;;;5018059;28;20065;-77
2022/12/12 12:59:02;;;;;;;23.65;10.25;;;;;;;;;;5018795;28;20042;-77
2022/12/12 13:01:31;;;;;;;27.88;11.25;;;;;;;;;;5019840;28;20466;-78
2022/12/12 13:04:09;;;;;;;28.92;11.18;;;;;;;;;;5018987;28;20045;-77
2022/12/12 13:06:45;;;;;;;21.80;9.90;;;;;;;;;;5019537;28;20536;-77
2022/12/12 13:09:30;;;;;;;24.60;10.35;;;;;;;;;;5019799;28;20603;-76
2022/12/12 13:12:01;;;;;;;24.58;11.90;;;;;;;;;;5016831;28;20054;-77
2022/12/12 13:14:39;;;;;;;25.58;14.30;;;;;;;;;;5018942;28;20487;-76
2022/12/12 13:17:07;;;;;;;27.02;12.07;;;;;;;;;;5017826;28;20075;-76
2022/12/12 13:19:41;;;;;;;22.30;12.60;;;;;;;;;;5017218;28;20038;-77
2022/12/12 13:22:12;;;;;;;26.95;10.60;;;;;;;;;;5018522;28;20676;-76
2022/12/12 13:24:53;;;;;;;28.88;11.40;;;;;;;;;;5018037;28;20535;-76
2022/12/12 13:27:25;;;;;;;29.85;12.23;;;;;;;;;;5000365;28;20129;-77
2022/12/12 13:29:52;;;;;;;;;;;;;;;;;;5000387;28;20053;-76
2022/12/12 13:32:30;;;;;;;30.80;12.43;;;;;;;;;;5017750;28;20427;-76
2022/12/12 13:35:02;;;;;;;25.17;10.48;;;;;;;;;;4999526;28;20496;-76
2022/12/12 13:37:31;;;;;;;21.83;10.27;;;;;;;;;;5018456;28;20038;-76
2022/12/12 13:39:58;;;;;;;26.90;12.45;;;;;;;;;;5016594;28;20038;-76
2022/12/12 13:42:24;;;;;;;24.77;11.40;;;;;;;;;;5018628;28;20060;-76
2022/12/12 13:44:50;;;;;;;30.90;13.40;;;;;;;;;;5019505;28;20104;-76
2022/12/12 13:47:23;;;;;;;30.83;12.73;;;;;;;;;;5000092;28;20511;-77
2022/12/12 13:49:49;;;;;;;35.95;13.88;;;;;;;;;;5015326;28;20431;-76
2022/12/12 13:52:27;;;;;;;34.60;13.80;;;;;;;;;;5014589;28;20544;-76
2022/12/12 13:54:54;;;;;;;24.83;13.30;;;;;;;;;;5019853;28;20349;-76
2022/12/12 13:57:22;;;;;;;25.88;11.98;;;;;;;;;;5017154;28;20160;-76
2022/12/12 13:59:57;;;;;;;29.48;14.32;;;;;;;;;;5018735;28;20048;-76
2022/12/12 14:02:36;;;;;;;25.33;11.10;;;;;;;;;;5001148;28;20128;-76
2022/12/12 14:05:05;;;;;;;26.95;12.07;;;;;;;;;;5018723;28;20058;-76
2022/12/12 14:07:31;;;;;;;32.90;12.50;;;;;;;;;;5018986;28;20037;-76
2022/12/12 14:09:58;;;;;;;24.13;11.68;;;;;;;;;;5017798;28;20048;-76
2022/12/12 14:12:24;;;;;;;28.35;12.57;;;;;;;;;;5017976;28;20042;-76
2022/12/12 14:15:05;;;;;;;26.42;12.98;;;;;;;;;;5018760;28;20042;-76
2022/12/12 14:17:33;;;;;;;26.92;11.65;;;;;;;;;;5019063;28;20052;-76
2022/12/12 14:19:59;;;;;;;27.90;12.20;;;;;;;;;;5018785;28;20464;-76
2022/12/12 14:22:28;;;;;;;25.15;12.00;;;;;;;;;;5017130;28;20117;-76
2022/12/12 14:25:08;;;;;;;30.42;13.30;;;;;;;;;;5019523;28;20050;-76
2022/12/12 14:27:51;;;;;;;26.02;10.98;;;;;;;;;;5001807;28;20046;-76
2022/12/12 14:30:18;;;;;;;22.65;12.60;;;;;;;;;;5016480;28;20487;-76
2022/12/12 14:33:01;;;;;;;24.10;10.95;;;;;;;;;;5019677;28;20050;-76
2022/12/12 14:35:59;;;;;;;23.52;9.70;;;;;;;;;;5019037;28;20128;-76
2022/12/12 14:38:44;;;;;;;25.38;11.52;;;;;;;;;;4974395;28;20053;-76
2022/12/12 14:41:14;;;;;;;27.85;12.27;;;;;;;;;;5018350;28;20113;-76
2022/12/12 14:43:42;;;;;;;28.67;12.40;;;;;;;;;;5001068;28;20049;-76
2022/12/12 14:46:18;;;;;;;25.38;11.20;;;;;;;;;;5015741;28;20030;-77
2022/12/12 14:48:44;;;;;;;21.83;11.88;;;;;;;;;;5000567;28;20069;-76
2022/12/12 14:51:16;;;;;;;24.70;11.98;;;;;;;;;;5000910;28;20053;-76
2022/12/12 14:53:47;;;;;;;32.58;13.02;;;;;;;;;;5017622;28;20592;-76